Time;durP1;ratioP1;P1;durP2;ratioP2;P2;SDS_P1;SDS_P2;PMS_P1;PMS_P2;Temp;Humidity;BMP_temperature;BMP_pressure;BME280_temperature;BME280_humidity;BME280_pressure;Samples;Min_cycle;Max_cycle;Signal;HPM_P1;HPM_P2
2021/07/09 00:02:46;;;;;;;26.53;24.33;;;27.20;99.90;;;;;;6359720;27;20224;-66
2021/07/09 00:05:50;;;;;;;27.23;25.23;;;27.20;99.90;;;;;;6372528;27;20227;-66
2021/07/09 00:08:53;;;;;;;28.97;26.70;;;27.20;99.90;;;;;;6372172;27;20230;-65
2021/07/09 00:11:57;;;;;;;30.40;28.17;;;27.10;99.90;;;;;;6372059;27;20672;-65
2021/07/09 00:15:00;;;;;;;30.07;27.67;;;27.10;99.90;;;;;;6372329;27;20212;-65
2021/07/09 00:18:05;;;;;;;29.93;27.73;;;26.90;99.90;;;;;;6368945;27;20196;-66
2021/07/09 00:21:08;;;;;;;31.80;29.10;;;26.80;99.90;;;;;;6372894;27;20189;-67
2021/07/09 00:24:13;;;;;;;34.83;31.70;;;26.80;99.90;;;;;;6372240;27;20224;-65
2021/07/09 00:27:16;;;;;;;32.17;29.70;;;26.70;99.90;;;;;;6372984;27;20215;-65
2021/07/09 00:30:19;;;;;;;31.60;29.20;;;26.60;99.90;;;;;;6373288;27;20224;-65
2021/07/09 00:33:24;;;;;;;33.47;30.77;;;26.70;99.90;;;;;;6373354;27;20550;-67
2021/07/09 00:36:27;;;;;;;33.57;31.07;;;26.60;99.90;;;;;;6374065;27;20673;-67
2021/07/09 00:39:30;;;;;;;33.47;30.80;;;26.60;99.90;;;;;;6374321;27;20231;-67
2021/07/09 00:42:34;;;;;;;35.13;32.57;;;26.60;99.90;;;;;;6376732;27;20596;-68
2021/07/09 00:45:37;;;;;;;32.23;29.83;;;26.50;99.90;;;;;;6375656;27;20232;-67
2021/07/09 00:48:42;;;;;;;34.20;31.60;;;26.50;99.90;;;;;;6374260;27;20228;-69
2021/07/09 00:51:45;;;;;;;32.87;30.30;;;26.40;99.90;;;;;;6374972;27;20689;-69
2021/07/09 00:54:48;;;;;;;35.47;32.60;;;26.40;99.90;;;;;;6374719;27;20235;-68
2021/07/09 00:57:54;;;;;;;33.47;30.87;;;26.40;99.90;;;;;;6374491;27;20220;-68
2021/07/09 01:00:58;;;;;;;34.30;31.63;;;26.40;99.90;;;;;;6374423;27;20223;-68
2021/07/09 01:04:04;;;;;;;34.53;31.67;;;26.30;99.90;;;;;;6374370;27;20293;-68
2021/07/09 01:07:07;;;;;;;34.67;31.97;;;26.20;99.90;;;;;;6374368;27;20224;-66
2021/07/09 01:10:12;;;;;;;33.40;30.70;;;26.20;99.90;;;;;;6374716;27;20235;-66
2021/07/09 01:13:17;;;;;;;34.97;32.47;;;26.10;99.90;;;;;;6379841;27;20250;-66
2021/07/09 01:16:21;;;;;;;34.03;31.43;;;26.10;99.90;;;;;;6378837;27;20239;-66
2021/07/09 01:19:28;;;;;;;34.80;31.87;;;26.10;99.90;;;;;;6379380;27;20224;-66
2021/07/09 01:22:32;;;;;;;33.93;31.30;;;26.00;99.90;;;;;;6378925;27;20685;-66
2021/07/09 01:25:37;;;;;;;33.33;30.70;;;25.90;99.90;;;;;;6374200;27;20247;-66
2021/07/09 01:28:41;;;;;;;33.73;31.33;;;25.90;99.90;;;;;;6378941;27;20292;-66
2021/07/09 01:31:44;;;;;;;31.70;28.83;;;25.80;99.90;;;;;;6378943;27;20232;-66
2021/07/09 01:34:48;;;;;;;34.97;32.17;;;25.70;99.90;;;;;;6377475;27;20340;-66
2021/07/09 01:37:58;;;;;;;34.50;31.70;;;25.70;99.90;;;;;;6377583;27;20231;-66
2021/07/09 01:41:03;;;;;;;37.50;34.67;;;25.50;99.90;;;;;;6376784;27;20558;-66
2021/07/09 01:44:07;;;;;;;34.13;31.50;;;25.50;99.90;;;;;;6373756;27;20225;-66
2021/07/09 01:47:10;;;;;;;34.80;32.20;;;25.40;99.90;;;;;;6376562;27;20247;-66
2021/07/09 01:50:14;;;;;;;34.67;31.83;;;25.40;99.90;;;;;;6376873;27;20682;-66
2021/07/09 01:53:17;;;;;;;35.03;32.23;;;25.40;99.90;;;;;;6355718;27;20232;-66
2021/07/09 01:56:22;;;;;;;31.70;29.07;;;25.30;99.90;;;;;;6352737;28;20577;-66
2021/07/09 01:59:25;;;;;;;24.60;22.70;;;25.30;99.90;;;;;;6352624;28;20234;-66
2021/07/09 02:02:28;;;;;;;25.00;22.97;;;25.30;99.90;;;;;;6352913;28;20232;-66
2021/07/09 02:05:31;;;;;;;24.87;22.97;;;25.20;99.90;;;;;;6374185;27;20232;-66
2021/07/09 02:08:34;;;;;;;26.33;24.10;;;25.30;99.90;;;;;;6355254;27;20221;-66
2021/07/09 02:11:39;;;;;;;24.30;22.50;;;25.30;99.90;;;;;;6352487;28;20551;-66
2021/07/09 02:14:42;;;;;;;25.90;23.80;;;25.20;99.90;;;;;;6351987;28;20242;-67
2021/07/09 02:17:46;;;;;;;26.07;23.97;;;25.20;99.90;;;;;;6352345;28;20225;-66
2021/07/09 02:20:49;;;;;;;24.63;22.73;;;25.20;99.90;;;;;;6376344;27;20231;-65
2021/07/09 02:23:52;;;;;;;20.33;18.83;;;25.10;99.90;;;;;;6352261;27;20221;-66
2021/07/09 02:26:57;;;;;;;19.83;18.13;;;25.10;99.90;;;;;;6352512;27;20237;-66
2021/07/09 02:30:00;;;;;;;18.73;17.33;;;25.00;99.90;;;;;;6372535;27;20564;-66
2021/07/09 02:33:04;;;;;;;19.07;17.60;;;25.00;99.90;;;;;;6377634;27;20209;-66
2021/07/09 02:36:07;;;;;;;19.83;18.33;;;24.90;99.90;;;;;;6377184;27;20257;-66
2021/07/09 02:39:11;;;;;;;18.80;17.30;;;24.90;99.90;;;;;;6377341;27;20512;-66
2021/07/09 02:42:16;;;;;;;19.47;18.07;;;24.90;99.90;;;;;;6377349;27;20197;-66
2021/07/09 02:45:20;;;;;;;18.00;16.60;;;24.90;99.90;;;;;;6377241;27;20236;-66
2021/07/09 02:48:23;;;;;;;20.73;18.80;;;24.90;99.90;;;;;;6376637;27;20595;-66
2021/07/09 02:51:27;;;;;;;20.27;18.37;;;24.90;99.90;;;;;;6377492;27;20229;-66
2021/07/09 02:54:30;;;;;;;19.93;18.43;;;24.80;99.90;;;;;;6376357;27;20239;-66
2021/07/09 02:57:35;;;;;;;17.87;16.37;;;24.80;99.90;;;;;;6377125;27;20217;-66
2021/07/09 03:00:38;;;;;;;18.33;16.83;;;24.80;99.90;;;;;;6376755;27;20237;-66
2021/07/09 03:03:41;;;;;;;17.50;16.20;;;24.70;99.90;;;;;;6376997;27;20232;-66
2021/07/09 03:06:44;;;;;;;18.97;17.50;;;24.70;99.90;;;;;;6376433;27;20221;-66
2021/07/09 03:09:48;;;;;;;19.60;18.00;;;24.70;99.90;;;;;;6376543;27;20221;-66
2021/07/09 03:12:52;;;;;;;19.10;17.67;;;24.60;99.90;;;;;;6376554;27;20232;-66
2021/07/09 03:15:56;;;;;;;20.80;19.20;;;24.50;99.90;;;;;;6376090;27;20575;-65
2021/07/09 03:18:59;;;;;;;20.27;18.57;;;24.50;99.90;;;;;;6376274;27;20661;-66
2021/07/09 03:22:03;;;;;;;21.70;19.87;;;24.50;99.90;;;;;;6376326;27;20225;-66
2021/07/09 03:25:08;;;;;;;19.80;18.17;;;24.50;99.90;;;;;;6376628;27;20306;-66
2021/07/09 03:28:13;;;;;;;20.70;19.10;;;24.50;99.90;;;;;;6375838;27;20225;-66
2021/07/09 03:31:16;;;;;;;22.40;20.60;;;24.30;99.90;;;;;;6375547;27;20573;-66
2021/07/09 03:34:19;;;;;;;25.10;23.10;;;24.20;99.90;;;;;;6374929;27;20565;-66
2021/07/09 03:37:22;;;;;;;26.70;24.50;;;24.20;99.90;;;;;;6375974;27;20220;-66
2021/07/09 03:40:25;;;;;;;23.87;22.07;;;24.30;99.90;;;;;;6375530;27;20232;-66
2021/07/09 03:43:30;;;;;;;26.23;24.13;;;24.40;99.90;;;;;;6375910;27;20232;-66
2021/07/09 03:46:33;;;;;;;24.83;22.87;;;24.40;99.90;;;;;;6375325;27;20232;-66
2021/07/09 03:49:36;;;;;;;25.77;23.77;;;24.50;99.90;;;;;;6375914;27;20221;-66
2021/07/09 03:52:39;;;;;;;25.33;23.23;;;24.50;99.90;;;;;;6375390;27;20233;-66
2021/07/09 03:55:43;;;;;;;26.30;24.40;;;24.60;99.90;;;;;;6375516;27;20574;-66
2021/07/09 03:58:47;;;;;;;25.67;23.87;;;24.60;99.90;;;;;;6375694;27;20235;-66
2021/07/09 04:01:50;;;;;;;27.87;25.60;;;24.60;99.90;;;;;;6375219;27;20238;-66
2021/07/09 04:04:54;;;;;;;28.40;26.20;;;24.70;99.90;;;;;;6375198;27;20239;-66
2021/07/09 04:07:57;;;;;;;27.97;25.37;;;24.70;99.90;;;;;;6375398;27;20229;-66
2021/07/09 04:11:00;;;;;;;27.60;25.50;;;24.80;99.90;;;;;;6375231;27;20229;-66
2021/07/09 04:14:06;;;;;;;26.90;24.87;;;24.80;99.90;;;;;;6375107;27;20589;-67
2021/07/09 04:17:09;;;;;;;28.77;26.33;;;24.90;99.90;;;;;;6374875;27;20233;-67
2021/07/09 04:20:13;;;;;;;28.30;26.20;;;24.90;99.90;;;;;;6374697;27;20225;-66
2021/07/09 04:23:17;;;;;;;27.37;25.27;;;25.00;99.90;;;;;;6375140;27;20569;-67
2021/07/09 04:26:20;;;;;;;27.13;25.13;;;25.00;99.90;;;;;;6374518;27;20243;-66
2021/07/09 04:29:24;;;;;;;30.10;27.90;;;25.00;99.90;;;;;;6374987;27;20235;-67
2021/07/09 04:32:30;;;;;;;29.13;27.03;;;25.00;99.90;;;;;;6374908;27;20228;-66
2021/07/09 04:35:34;;;;;;;28.07;25.97;;;25.10;99.90;;;;;;6375113;27;20331;-66
2021/07/09 04:38:37;;;;;;;28.50;26.00;;;25.10;99.90;;;;;;6370278;27;20678;-66
2021/07/09 04:41:40;;;;;;;28.70;26.53;;;25.20;99.90;;;;;;6375129;27;20240;-66
2021/07/09 04:44:45;;;;;;;27.83;25.57;;;25.20;99.90;;;;;;6374776;27;20584;-66
2021/07/09 04:47:48;;;;;;;26.80;24.70;;;25.10;99.90;;;;;;6379895;27;20232;-66
2021/07/09 04:50:51;;;;;;;27.03;24.93;;;25.10;99.90;;;;;;6379930;27;20237;-66
2021/07/09 04:53:54;;;;;;;25.97;23.67;;;25.20;99.90;;;;;;6379637;27;20232;-66
2021/07/09 04:56:58;;;;;;;24.60;22.80;;;25.20;99.90;;;;;;6379707;27;20235;-66
2021/07/09 05:00:02;;;;;;;26.07;23.87;;;25.40;99.90;;;;;;6379452;27;20223;-67
2021/07/09 05:03:06;;;;;;;26.17;24.17;;;25.50;99.90;;;;;;6380070;27;20208;-65
2021/07/09 05:06:09;;;;;;;26.37;24.47;;;25.60;99.90;;;;;;6379496;27;20235;-65
2021/07/09 05:09:12;;;;;;;24.57;22.67;;;25.70;99.90;;;;;;6379707;27;20204;-64
2021/07/09 05:12:16;;;;;;;25.40;23.37;;;25.90;99.90;;;;;;6379271;27;20541;-66
2021/07/09 05:15:21;;;;;;;25.27;23.37;;;26.00;99.90;;;;;;6379169;27;20232;-65
2021/07/09 05:18:24;;;;;;;25.20;23.10;;;26.00;99.90;;;;;;6379303;27;20225;-65
2021/07/09 05:21:28;;;;;;;24.90;23.10;;;26.10;99.90;;;;;;6379518;27;20235;-65
2021/07/09 05:24:31;;;;;;;23.60;21.80;;;26.20;99.90;;;;;;6378943;27;20228;-69
2021/07/09 05:27:34;;;;;;;23.37;21.67;;;26.30;99.90;;;;;;6379310;27;20224;-67
2021/07/09 05:30:40;;;;;;;24.20;21.90;;;26.40;99.90;;;;;;6378953;27;20714;-66
2021/07/09 05:33:44;;;;;;;23.47;21.63;;;26.50;99.90;;;;;;6378770;27;20688;-66
2021/07/09 05:36:47;;;;;;;23.43;21.80;;;26.70;99.90;;;;;;6379204;27;20224;-69
2021/07/09 05:39:50;;;;;;;22.70;21.07;;;26.80;99.90;;;;;;6373814;27;20223;-66
2021/07/09 05:42:53;;;;;;;22.50;20.60;;;26.90;99.90;;;;;;6379035;27;20220;-67
2021/07/09 05:45:58;;;;;;;23.10;21.17;;;27.00;99.90;;;;;;6378273;27;20236;-67
2021/07/09 05:49:02;;;;;;;21.60;20.10;;;27.00;99.90;;;;;;6378666;27;20546;-66
2021/07/09 05:52:05;;;;;;;22.83;21.17;;;27.10;99.90;;;;;;6378032;27;20227;-67
2021/07/09 05:55:09;;;;;;;22.53;20.83;;;27.20;99.90;;;;;;6378735;27;20280;-66
2021/07/09 05:58:13;;;;;;;21.00;19.30;;;27.30;99.90;;;;;;6377211;27;20681;-66
2021/07/09 06:01:17;;;;;;;20.73;18.97;;;27.40;99.90;;;;;;6378093;27;20592;-66
2021/07/09 06:04:21;;;;;;;21.33;19.70;;;27.50;99.90;;;;;;6377938;27;20240;-66
2021/07/09 06:07:25;;;;;;;20.07;18.60;;;27.60;99.90;;;;;;6378170;27;20228;-63
2021/07/09 06:10:28;;;;;;;20.63;19.10;;;27.80;99.90;;;;;;6377938;27;20220;-63
2021/07/09 06:13:31;;;;;;;19.43;17.87;;;28.10;99.50;;;;;;6378095;27;20228;-66
2021/07/09 06:16:36;;;;;;;21.00;18.73;;;28.50;99.00;;;;;;6377750;27;20307;-67
2021/07/09 06:19:39;;;;;;;18.80;17.37;;;28.90;98.10;;;;;;6377839;27;20304;-67
2021/07/09 06:22:42;;;;;;;17.93;16.50;;;29.50;97.00;;;;;;6377709;27;20224;-66
2021/07/09 06:25:46;;;;;;;18.93;17.43;;;29.90;95.90;;;;;;6377352;27;20576;-66
2021/07/09 06:28:49;;;;;;;19.27;17.50;;;30.50;94.80;;;;;;6377325;27;20227;-67
2021/07/09 06:31:54;;;;;;;17.00;15.83;;;30.90;93.50;;;;;;6377024;27;20243;-67
2021/07/09 06:34:57;;;;;;;17.80;16.07;;;31.10;92.60;;;;;;6377378;27;20636;-67
2021/07/09 06:38:01;;;;;;;19.13;17.50;;;31.50;91.40;;;;;;6377447;27;20246;-66
2021/07/09 06:41:04;;;;;;;16.80;15.55;;;31.70;90.60;;;;;;6377803;27;20567;-66
2021/07/09 06:44:07;;;;;;;18.17;16.67;;;32.10;90.10;;;;;;6376918;27;20232;-64
2021/07/09 06:47:12;;;;;;;16.88;15.68;;;32.60;88.30;;;;;;6372687;27;20228;-64
2021/07/09 06:50:15;;;;;;;18.02;16.83;;;33.00;85.40;;;;;;6376901;27;20228;-67
2021/07/09 06:53:18;;;;;;;16.98;15.68;;;33.40;82.70;;;;;;6377099;27;20228;-67
2021/07/09 06:56:22;;;;;;;17.83;16.63;;;33.90;80.80;;;;;;6376738;27;20235;-66
2021/07/09 06:59:25;;;;;;;19.42;17.88;;;34.60;77.70;;;;;;6376880;27;20231;-67
2021/07/09 07:02:30;;;;;;;18.52;17.05;;;34.90;74.80;;;;;;6376683;27;20216;-67
2021/07/09 07:05:34;;;;;;;18.20;16.48;;;35.50;72.70;;;;;;6376439;27;20228;-67
2021/07/09 07:08:37;;;;;;;19.38;17.52;;;36.20;70.10;;;;;;6376316;27;20564;-67
2021/07/09 07:11:40;;;;;;;19.80;18.17;;;36.70;66.90;;;;;;6376113;27;20625;-67
2021/07/09 07:14:43;;;;;;;18.42;17.05;;;36.40;63.70;;;;;;6376407;27;20228;-67
2021/07/09 07:17:48;;;;;;;17.10;15.95;;;36.80;64.00;;;;;;6375926;27;20596;-67
2021/07/09 07:20:53;;;;;;;18.05;16.65;;;37.10;62.30;;;;;;6376429;27;20232;-65
2021/07/09 07:23:56;;;;;;;17.60;16.33;;;37.70;60.70;;;;;;6375899;27;20304;-65
2021/07/09 07:27:05;;;;;;;17.63;16.42;;;38.10;58.40;;;;;;6376314;27;20552;-66
2021/07/09 07:30:10;;;;;;;16.02;14.93;;;38.80;57.10;;;;;;6375502;27;20215;-67
2021/07/09 07:33:15;;;;;;;18.58;17.27;;;39.70;55.60;;;;;;6376080;27;20235;-67
2021/07/09 07:36:18;;;;;;;19.13;17.13;;;39.20;53.20;;;;;;6374882;27;20673;-69
2021/07/09 07:39:21;;;;;;;16.70;15.50;;;38.80;53.30;;;;;;6371877;27;20233;-66
2021/07/09 07:42:25;;;;;;;17.80;16.40;;;38.10;54.20;;;;;;6348817;28;20220;-67
2021/07/09 07:45:29;;;;;;;16.55;14.75;;;38.70;54.00;;;;;;6345881;28;20221;-66
2021/07/09 07:48:33;;;;;;;16.80;15.52;;;39.70;52.20;;;;;;6339814;27;20673;-69
2021/07/09 07:51:36;;;;;;;16.45;15.05;;;40.60;50.30;;;;;;6337045;27;20557;-70
2021/07/09 07:54:40;;;;;;;13.82;12.73;;;39.90;49.50;;;;;;6343818;27;20733;-68
2021/07/09 07:57:43;;;;;;;11.85;10.75;;;39.00;50.30;;;;;;6325110;28;20223;-69
2021/07/09 08:00:46;;;;;;;9.68;8.52;;;38.30;49.80;;;;;;6327502;28;20216;-68
2021/07/09 08:03:51;;;;;;;9.20;8.50;;;38.10;48.00;;;;;;6330135;28;20217;-67
2021/07/09 08:06:54;;;;;;;10.02;8.23;;;37.60;47.70;;;;;;6333982;28;20220;-68
2021/07/09 08:09:57;;;;;;;9.77;8.88;;;36.90;48.80;;;;;;6348996;27;20677;-69
2021/07/09 08:13:00;;;;;;;9.20;8.48;;;36.40;49.30;;;;;;6360238;27;20692;-66
2021/07/09 08:16:04;;;;;;;10.57;9.57;;;36.00;50.40;;;;;;6370615;27;20307;-68
2021/07/09 08:19:09;;;;;;;9.25;8.55;;;35.20;51.60;;;;;;6367210;27;20227;-67
2021/07/09 08:22:13;;;;;;;9.98;9.10;;;34.90;51.40;;;;;;6355833;27;20216;-70
2021/07/09 08:25:17;;;;;;;10.25;9.27;;;34.50;51.70;;;;;;6374718;27;20220;-67
2021/07/09 08:28:21;;;;;;;9.98;9.18;;;33.40;54.90;;;;;;6374386;27;20262;-65
2021/07/09 08:31:24;;;;;;;9.05;8.35;;;33.30;56.00;;;;;;6373029;27;20224;-65
2021/07/09 08:34:29;;;;;;;9.73;8.75;;;33.50;54.30;;;;;;6374757;27;20232;-65
2021/07/09 08:37:32;;;;;;;9.38;8.68;;;33.50;53.10;;;;;;6374480;27;20231;-68
2021/07/09 08:40:36;;;;;;;9.90;8.95;;;33.20;53.40;;;;;;6374556;27;20296;-66
2021/07/09 08:43:59;;;;;;;8.75;8.13;;;32.80;54.40;;;;;;6373924;27;20301;-69
2021/07/09 08:47:03;;;;;;;9.65;8.85;;;32.30;55.10;;;;;;6375152;27;20235;-69
2021/07/09 08:50:10;;;;;;;10.52;8.75;;;32.50;55.90;;;;;;6375018;27;20295;-66
2021/07/09 08:53:13;;;;;;;9.65;8.95;;;32.80;56.20;;;;;;6374141;27;20227;-67
2021/07/09 08:56:17;;;;;;;8.18;7.38;;;33.00;56.20;;;;;;6372954;27;20559;-69
2021/07/09 08:59:21;;;;;;;7.95;7.22;;;33.00;54.00;;;;;;6365657;27;20571;-70
2021/07/09 09:02:26;;;;;;;9.40;7.60;;;33.20;53.70;;;;;;6353725;27;20272;-69
2021/07/09 09:05:31;;;;;;;8.80;8.07;;;33.50;53.40;;;;;;6374376;27;20577;-69
2021/07/09 09:08:35;;;;;;;6.93;6.45;;;33.80;52.20;;;;;;6373810;27;20610;-70
2021/07/09 09:11:38;;;;;;;8.57;7.80;;;33.80;50.70;;;;;;6374360;27;20239;-70
2021/07/09 09:14:43;;;;;;;8.68;7.68;;;33.30;51.10;;;;;;6373441;27;20228;-68
2021/07/09 09:17:46;;;;;;;7.47;6.97;;;33.20;52.30;;;;;;6373494;27;20292;-69
2021/07/09 09:20:59;;;;;;;8.32;7.47;;;33.30;51.20;;;;;;6372735;27;20228;-65
2021/07/09 09:24:03;;;;;;;8.13;6.47;;;33.40;51.20;;;;;;6374121;27;20212;-68
2021/07/09 09:27:22;;;;;;;7.13;6.53;;;33.00;50.40;;;;;;6373620;27;20243;-69
2021/07/09 09:30:26;;;;;;;9.13;6.93;;;33.10;51.00;;;;;;6374131;27;20234;-75
2021/07/09 09:33:33;;;;;;;6.95;6.45;;;33.40;50.60;;;;;;6377424;27;20224;-68
2021/07/09 09:36:38;;;;;;;7.30;6.60;;;33.40;50.40;;;;;;6378278;27;20232;-66
2021/07/09 09:39:42;;;;;;;6.32;5.80;;;33.60;47.60;;;;;;6378097;27;20239;-64
2021/07/09 09:42:45;;;;;;;6.32;5.72;;;32.60;49.40;;;;;;6378591;27;20231;-65
2021/07/09 09:45:58;;;;;;;6.13;5.70;;;32.60;50.00;;;;;;6378065;27;20224;-68
2021/07/09 09:49:02;;;;;;;6.75;6.25;;;32.80;49.30;;;;;;6378580;27;20220;-67
2021/07/09 09:52:07;;;;;;;6.75;6.15;;;33.00;48.90;;;;;;6378031;27;20228;-69
2021/07/09 09:55:12;;;;;;;5.15;4.65;;;33.20;49.10;;;;;;6368741;27;20232;-70
2021/07/09 09:58:18;;;;;;;2.85;2.65;;;33.00;43.10;;;;;;6377533;27;20571;-67
2021/07/09 10:01:31;;;;;;;2.80;2.60;;;32.80;38.90;;;;;;6352363;28;20579;-67
2021/07/09 10:04:35;;;;;;;2.90;2.70;;;33.00;37.50;;;;;;6352136;28;20237;-68
2021/07/09 10:07:40;;;;;;;2.55;2.33;;;33.20;37.70;;;;;;6351949;28;20235;-66
2021/07/09 10:10:44;;;;;;;2.72;2.53;;;33.20;36.90;;;;;;6352019;27;20229;-72
2021/07/09 10:13:48;;;;;;;2.40;2.20;;;33.20;36.70;;;;;;6342358;28;20237;-71
2021/07/09 10:16:52;;;;;;;2.70;2.50;;;33.30;36.90;;;;;;6326513;28;20230;-72
2021/07/09 10:19:56;;;;;;;5.47;5.05;;;33.20;36.80;;;;;;6326726;28;20229;-71
2021/07/09 10:23:22;;;;;;;7.88;7.28;;;33.30;45.40;;;;;;6328803;28;20257;-70
2021/07/09 10:26:25;;;;;;;7.45;6.93;;;33.30;50.10;;;;;;6351771;28;20233;-70
2021/07/09 10:29:33;;;;;;;7.97;7.22;;;33.00;52.40;;;;;;6351470;28;20224;-72
2021/07/09 10:32:39;;;;;;;7.82;7.32;;;32.90;53.40;;;;;;6351603;28;20240;-71
2021/07/09 10:35:42;;;;;;;7.20;6.60;;;33.00;52.60;;;;;;6351034;27;20251;-66
2021/07/09 10:38:56;;;;;;;8.38;6.97;;;33.00;53.00;;;;;;6351180;28;20240;-67
2021/07/09 10:42:13;;;;;;;7.72;6.25;;;33.10;52.90;;;;;;6350992;28;20690;-64
2021/07/09 10:45:20;;;;;;;6.57;5.57;;;33.10;53.10;;;;;;6351019;28;20244;-68
2021/07/09 10:48:37;;;;;;;6.15;5.57;;;32.90;53.30;;;;;;6351026;28;20221;-70
2021/07/09 10:51:48;;;;;;;6.18;5.13;;;32.60;53.30;;;;;;6351325;27;20225;-70
2021/07/09 10:54:59;;;;;;;5.68;5.25;;;32.40;54.30;;;;;;6350344;27;20225;-68
2021/07/09 10:58:25;;;;;;;6.82;5.78;;;32.30;54.40;;;;;;6340767;28;20532;-71
2021/07/09 11:01:36;;;;;;;6.15;4.80;;;32.20;55.00;;;;;;6325621;28;20241;-64
2021/07/09 11:04:40;;;;;;;5.20;4.70;;;32.40;54.90;;;;;;6325505;28;20617;-69
2021/07/09 11:07:48;;;;;;;5.35;4.88;;;32.70;53.90;;;;;;6325740;28;20230;-70
2021/07/09 11:10:58;;;;;;;4.70;4.28;;;32.80;52.30;;;;;;6325727;28;20218;-70
2021/07/09 11:14:07;;;;;;;6.93;4.65;;;32.80;51.90;;;;;;6337621;28;20217;-69
2021/07/09 11:17:18;;;;;;;4.07;3.58;;;32.70;51.50;;;;;;6350684;27;20237;-68
2021/07/09 11:20:33;;;;;;;4.32;3.92;;;32.70;51.90;;;;;;6350373;27;20228;-68
2021/07/09 11:23:52;;;;;;;4.18;3.88;;;32.60;50.80;;;;;;6345540;27;20210;-68
2021/07/09 11:27:04;;;;;;;3.67;3.38;;;32.60;50.70;;;;;;6347390;28;20685;-68
2021/07/09 11:30:13;;;;;;;3.80;3.60;;;32.80;50.20;;;;;;6346123;27;20918;-69
2021/07/09 11:33:24;;;;;;;3.75;3.40;;;33.00;49.80;;;;;;6346198;27;20682;-66
2021/07/09 11:36:27;;;;;;;3.13;2.92;;;33.20;49.50;;;;;;6344268;28;20233;-66
2021/07/09 11:39:33;;;;;;;3.28;3.03;;;33.30;48.00;;;;;;6346640;28;20365;-66
2021/07/09 11:42:39;;;;;;;13.20;5.32;;;33.50;48.80;;;;;;6346039;27;20227;-66
2021/07/09 11:45:43;;;;;;;3.65;3.28;;;33.90;48.70;;;;;;6347817;27;20694;-66
2021/07/09 11:48:46;;;;;;;5.03;4.63;;;34.20;48.10;;;;;;6347272;27;20232;-66
2021/07/09 11:51:51;;;;;;;5.15;4.72;;;34.20;47.90;;;;;;6347301;27;20849;-67
2021/07/09 11:54:57;;;;;;;5.57;5.07;;;34.00;49.90;;;;;;6346205;27;20217;-67
2021/07/09 11:58:06;;;;;;;5.82;5.32;;;33.90;50.10;;;;;;6346999;27;20248;-66
2021/07/09 12:01:17;;;;;;;6.57;5.43;;;33.90;50.40;;;;;;6345751;27;20236;-66
2021/07/09 12:04:29;;;;;;;4.50;4.20;;;34.10;50.30;;;;;;6341111;28;20701;-67
2021/07/09 12:07:34;;;;;;;4.65;4.25;;;34.20;48.60;;;;;;6341138;27;20220;-70
2021/07/09 12:10:37;;;;;;;3.42;2.85;;;34.20;48.30;;;;;;6344182;28;20701;-67
2021/07/09 12:13:43;;;;;;;6.07;2.83;;;34.20;46.40;;;;;;6343177;28;20214;-66
2021/07/09 12:16:49;;;;;;;2.47;1.83;;;34.00;45.70;;;;;;6343474;27;20473;-66
2021/07/09 12:20:01;;;;;;;2.30;1.80;;;33.70;45.50;;;;;;6336386;28;20228;-66
2021/07/09 12:23:05;;;;;;;6.55;2.67;;;33.30;47.20;;;;;;6341991;27;20213;-66
2021/07/09 12:26:10;;;;;;;3.35;2.25;;;33.10;47.20;;;;;;6346489;28;20239;-74
2021/07/09 12:29:15;;;;;;;1.80;1.70;;;33.10;49.50;;;;;;6347546;28;20232;-64
2021/07/09 12:32:19;;;;;;;3.80;2.30;;;33.00;47.50;;;;;;6321936;28;20225;-73
2021/07/09 12:35:24;;;;;;;2.28;2.08;;;32.70;46.60;;;;;;6321622;28;20232;-70
2021/07/09 12:38:29;;;;;;;2.85;1.65;;;32.50;47.50;;;;;;6344006;28;20228;-63
2021/07/09 12:41:34;;;;;;;3.53;1.92;;;32.20;49.00;;;;;;6346668;28;20410;-65
2021/07/09 12:44:51;;;;;;;2.25;2.00;;;32.00;49.20;;;;;;6346713;27;20233;-67
2021/07/09 12:47:54;;;;;;;2.08;1.98;;;31.80;49.60;;;;;;6346817;27;20244;-62
2021/07/09 12:50:58;;;;;;;1.50;1.40;;;31.60;49.10;;;;;;6346310;27;20229;-67
2021/07/09 12:54:04;;;;;;;1.90;1.45;;;31.50;49.70;;;;;;6346518;27;20224;-66
2021/07/09 12:57:07;;;;;;;2.75;1.67;;;31.50;50.00;;;;;;6336724;28;20248;-68
2021/07/09 13:00:14;;;;;;;1.92;1.55;;;31.30;49.60;;;;;;6346593;27;20205;-67
2021/07/09 13:03:29;;;;;;;2.50;1.45;;;31.30;50.00;;;;;;6342063;28;20262;-68
2021/07/09 13:06:33;;;;;;;3.38;1.55;;;31.10;50.40;;;;;;6322283;28;20698;-68
2021/07/09 13:09:37;;;;;;;2.17;1.27;;;31.10;50.40;;;;;;6325955;28;20225;-69
2021/07/09 13:12:40;;;;;;;6.80;1.75;;;31.20;49.90;;;;;;6326675;28;20236;-66
2021/07/09 13:16:10;;;;;;;2.83;2.05;;;31.20;49.50;;;;;;6350609;27;20231;-69
2021/07/09 13:19:14;;;;;;;1.80;1.50;;;31.00;49.40;;;;;;6351451;27;20590;-67
2021/07/09 13:22:30;;;;;;;4.88;1.70;;;31.10;49.60;;;;;;6351635;27;20240;-71
2021/07/09 13:25:33;;;;;;;2.95;1.88;;;31.00;49.00;;;;;;6350376;28;20229;-71
2021/07/09 13:28:42;;;;;;;1.92;1.70;;;30.90;49.20;;;;;;6350954;28;20228;-66
2021/07/09 13:31:47;;;;;;;2.40;1.85;;;30.80;48.90;;;;;;6351175;28;20710;-70
2021/07/09 13:34:51;;;;;;;3.23;1.43;;;30.60;48.70;;;;;;6350738;27;20587;-70
2021/07/09 13:37:54;;;;;;;2.13;1.30;;;30.60;48.50;;;;;;6351057;27;20232;-65
2021/07/09 13:40:57;;;;;;;1.60;1.30;;;30.40;49.20;;;;;;6350678;27;20666;-66
2021/07/09 13:44:00;;;;;;;2.63;1.70;;;30.50;49.10;;;;;;6344021;28;20240;-67
2021/07/09 13:47:17;;;;;;;1.80;1.70;;;30.50;50.50;;;;;;6350605;27;20236;-67
2021/07/09 13:50:24;;;;;;;2.95;1.60;;;30.60;49.90;;;;;;6350583;27;20221;-67
2021/07/09 13:53:28;;;;;;;1.70;1.58;;;30.70;49.60;;;;;;6350087;27;20603;-66
2021/07/09 13:56:31;;;;;;;2.00;1.80;;;30.80;49.00;;;;;;6350592;27;20236;-67
2021/07/09 13:59:34;;;;;;;1.33;1.23;;;30.70;48.00;;;;;;6350169;28;20236;-67
2021/07/09 14:02:39;;;;;;;1.70;1.42;;;30.60;47.90;;;;;;6350399;27;20235;-66
2021/07/09 14:05:42;;;;;;;1.40;1.17;;;30.50;47.60;;;;;;6349847;27;20318;-66
2021/07/09 14:08:46;;;;;;;2.00;1.23;;;30.40;47.90;;;;;;6350161;27;20256;-67
2021/07/09 14:11:49;;;;;;;1.57;1.40;;;30.20;48.00;;;;;;6350115;27;20487;-67
2021/07/09 14:14:52;;;;;;;1.10;1.00;;;29.90;48.50;;;;;;6349787;27;20242;-66
2021/07/09 14:17:57;;;;;;;1.20;1.00;;;29.70;48.70;;;;;;6348944;28;20232;-67
2021/07/09 14:21:01;;;;;;;2.43;1.07;;;29.70;49.10;;;;;;6350325;28;20229;-67
2021/07/09 14:24:04;;;;;;;2.90;1.37;;;29.90;49.00;;;;;;6349923;28;20221;-69
2021/07/09 14:27:08;;;;;;;1.30;1.20;;;30.00;48.70;;;;;;6349257;27;20200;-68
2021/07/09 14:30:13;;;;;;;1.20;1.10;;;30.10;48.90;;;;;;6348557;27;20193;-68
2021/07/09 14:33:17;;;;;;;0.93;0.83;;;30.20;49.20;;;;;;6349875;28;20213;-69
2021/07/09 14:36:20;;;;;;;1.73;1.10;;;30.10;48.80;;;;;;6349526;28;20246;-68
2021/07/09 14:39:24;;;;;;;1.73;1.17;;;30.00;48.50;;;;;;6349962;28;20224;-67
2021/07/09 14:42:28;;;;;;;1.40;1.00;;;29.90;48.30;;;;;;6349079;28;20243;-67
2021/07/09 14:45:31;;;;;;;2.77;1.20;;;29.70;48.40;;;;;;6349240;28;20469;-67
2021/07/09 14:48:36;;;;;;;0.90;0.73;;;29.80;48.40;;;;;;6349083;27;20886;-67
2021/07/09 14:51:39;;;;;;;1.60;1.10;;;29.60;48.50;;;;;;6349280;27;20216;-67
2021/07/09 14:54:43;;;;;;;1.10;0.70;;;29.60;48.20;;;;;;6348761;27;20233;-67
2021/07/09 14:57:46;;;;;;;1.33;1.20;;;29.60;48.30;;;;;;6349358;28;20243;-67
2021/07/09 15:00:50;;;;;;;3.53;0.90;;;29.60;48.60;;;;;;6349314;27;20221;-68
2021/07/09 15:03:54;;;;;;;1.50;0.93;;;29.70;48.60;;;;;;6348666;27;20221;-67
2021/07/09 15:07:00;;;;;;;1.03;0.80;;;29.80;48.30;;;;;;6348322;27;20248;-68
2021/07/09 15:10:04;;;;;;;1.30;1.00;;;29.90;48.70;;;;;;6348989;27;20232;-68
2021/07/09 15:13:07;;;;;;;1.07;0.80;;;30.00;48.30;;;;;;6348372;27;20228;-65
2021/07/09 15:16:22;;;;;;;0.97;0.77;;;29.90;47.80;;;;;;6348117;27;20442;-67
2021/07/09 15:19:28;;;;;;;1.03;0.77;;;29.70;48.00;;;;;;6348220;27;20259;-67
2021/07/09 15:22:31;;;;;;;1.33;1.00;;;29.60;48.40;;;;;;6348204;27;20240;-66
2021/07/09 15:25:34;;;;;;;1.83;0.90;;;29.60;48.40;;;;;;6348094;28;20228;-66
2021/07/09 15:28:38;;;;;;;3.70;0.90;;;29.40;48.50;;;;;;6347995;28;20693;-65
2021/07/09 15:31:41;;;;;;;1.10;0.90;;;29.20;48.60;;;;;;6347488;27;20696;-69
2021/07/09 15:34:46;;;;;;;0.90;0.57;;;28.90;48.90;;;;;;6346410;28;20225;-70
2021/07/09 15:37:50;;;;;;;3.43;0.70;;;28.60;49.70;;;;;;6347718;27;20217;-67
2021/07/09 15:40:53;;;;;;;0.90;0.70;;;28.50;49.80;;;;;;6347273;28;20604;-67
2021/07/09 15:43:56;;;;;;;3.90;0.77;;;28.60;50.20;;;;;;6346949;27;20244;-69
2021/07/09 15:47:03;;;;;;;0.87;0.70;;;28.80;50.20;;;;;;6347098;27;20254;-71
2021/07/09 15:50:08;;;;;;;1.20;0.53;;;28.80;49.10;;;;;;6347703;27;20650;-65